^^
Meteo Knjazevac Station Historical Data
Daily Summary for September 29, 2021 Units:  Both    English   Metric
Daily Weekly Monthly Yearly Custom
  High: Low: Average:
Temperature: 64 °F /  17.8 °C 49.5 °F /  9.7 °C 53 °F /  11.7 °C
Dew Point: 55.8 °F /  13.2 °C 48.4 °F /  9.1 °C 50.8 °F /  10.4 °C
Humidity: 98% 74% 92%
Wind Speed: 7mph /  11.3km/h - 1.9mph /  3.1km/h
Wind Gust: 13mph /  20.9km/h - -
Wind- - SE
Pressure: 30.13 in /  1020.2 hPa 30.11 in /  1019.5 hPa -
Precipitation: 0.00 in /  0 mm    
Historical Graphs
 
 
Tabular Data for September 29, 2021
Time Temperature Dew Point Pressure Wind Wind Speed Wind Gust Humidity Rainfall Rate (Hourly) solar Conditions
00:00 54.5 °F /  12.5 °C 51.6 °F /  10.9 °C 30.12in /  1019.9hPa NE 2mph /  3.2km/h 6mph /  9.7km/h 90% 0.00in /  0mm 0 W/m2
00:10 54.2 °F /  12.3 °C 51.7 °F /  10.9 °C 30.13in /  1020.2hPa NNE 1mph /  1.6km/h 4mph /  6.4km/h 91% 0.00in /  0mm 0 W/m2
00:20 54 °F /  12.2 °C 51.4 °F /  10.8 °C 30.13in /  1020.2hPa Calm   3mph /  4.8km/h 91% 0.00in /  0mm 0 W/m2
00:30 53.6 °F /  12 °C 51.6 °F /  10.9 °C 30.13in /  1020.2hPa NNE 2mph /  3.2km/h 5mph /  8km/h 93% 0.00in /  0mm 0 W/m2
00:40 53.6 °F /  12 °C 51.6 °F /  10.9 °C 30.13in /  1020.2hPa NNE 1mph /  1.6km/h 3mph /  4.8km/h 93% 0.00in /  0mm 0 W/m2
00:50 53.2 °F /  11.8 °C 51.3 °F /  10.7 °C 30.13in /  1020.2hPa NE 5mph /  8km/h 6mph /  9.7km/h 93% 0.00in /  0mm 0 W/m2
01:00 53.1 °F /  11.7 °C 51.1 °F /  10.6 °C 30.13in /  1020.2hPa Calm   5mph /  8km/h 93% 0.00in /  0mm 0 W/m2
01:10 53.1 °F /  11.7 °C 51.1 °F /  10.6 °C 30.13in /  1020.2hPa North 2mph /  3.2km/h 4mph /  6.4km/h 93% 0.00in /  0mm 0 W/m2
01:20 52.9 °F /  11.6 °C 50.9 °F /  10.5 °C 30.12in /  1019.9hPa Calm   3mph /  4.8km/h 93% 0.00in /  0mm 0 W/m2
01:30 52.7 °F /  11.5 °C 50.7 °F /  10.4 °C 30.12in /  1019.9hPa Calm   3mph /  4.8km/h 93% 0.00in /  0mm 0 W/m2
01:40 52.5 °F /  11.4 °C 50.6 °F /  10.3 °C 30.12in /  1019.9hPa SSE 1mph /  1.6km/h 3mph /  4.8km/h 93% 0.00in /  0mm 0 W/m2
01:50 52.3 °F /  11.3 °C 50.4 °F /  10.2 °C 30.13in /  1020.2hPa Calm   4mph /  6.4km/h 93% 0.00in /  0mm 0 W/m2
02:00 52.2 °F /  11.2 °C 50.2 °F /  10.1 °C 30.12in /  1019.9hPa WSW 2mph /  3.2km/h 2mph /  3.2km/h 93% 0.00in /  0mm 0 W/m2
02:10 52 °F /  11.1 °C 50 °F /  10 °C 30.13in /  1020.2hPa Calm   3mph /  4.8km/h 93% 0.00in /  0mm 0 W/m2
02:20 51.6 °F /  10.9 °C 49.9 °F /  9.9 °C 30.13in /  1020.2hPa Calm   3mph /  4.8km/h 94% 0.00in /  0mm 0 W/m2
02:30 51.6 °F /  10.9 °C 49.9 °F /  9.9 °C 30.13in /  1020.2hPa SSE 2mph /  3.2km/h 2mph /  3.2km/h 94% 0.00in /  0mm 0 W/m2
02:40 51.4 °F /  10.8 °C 49.8 °F /  9.9 °C 30.12in /  1019.9hPa ESE 1mph /  1.6km/h 5mph /  8km/h 94% 0.00in /  0mm 0 W/m2
02:50 51.3 °F /  10.7 °C 49.6 °F /  9.8 °C 30.12in /  1019.9hPa NE 1mph /  1.6km/h 3mph /  4.8km/h 94% 0.00in /  0mm 0 W/m2
03:00 51.3 °F /  10.7 °C 49.6 °F /  9.8 °C 30.12in /  1019.9hPa SE 2mph /  3.2km/h 4mph /  6.4km/h 94% 0.00in /  0mm 0 W/m2
03:10 51.3 °F /  10.7 °C 49.6 °F /  9.8 °C 30.12in /  1019.9hPa NE 1mph /  1.6km/h 3mph /  4.8km/h 94% 0.00in /  0mm 0 W/m2
03:20 50.9 °F /  10.5 °C 49.2 °F /  9.6 °C 30.12in /  1019.9hPa SSE 2mph /  3.2km/h 5mph /  8km/h 94% 0.00in /  0mm 0 W/m2
03:30 50.7 °F /  10.4 °C 49.3 °F /  9.6 °C 30.12in /  1019.9hPa SSE 2mph /  3.2km/h 5mph /  8km/h 95% 0.00in /  0mm 0 W/m2
03:40 50.5 °F /  10.3 °C 49.2 °F /  9.6 °C 30.12in /  1019.9hPa Calm   5mph /  8km/h 95% 0.00in /  0mm 0 W/m2
03:50 50.5 °F /  10.3 °C 49.2 °F /  9.6 °C 30.12in /  1019.9hPa SW 2mph /  3.2km/h 4mph /  6.4km/h 95% 0.00in /  0mm 0 W/m2
04:00 50.4 °F /  10.2 °C 49 °F /  9.4 °C 30.12in /  1019.9hPa Calm   3mph /  4.8km/h 95% 0.00in /  0mm 0 W/m2
04:10 50.2 °F /  10.1 °C 48.8 °F /  9.3 °C 30.12in /  1019.9hPa East 2mph /  3.2km/h 3mph /  4.8km/h 95% 0.00in /  0mm 0 W/m2
04:20 50 °F /  10 °C 48.6 °F /  9.2 °C 30.12in /  1019.9hPa NE 1mph /  1.6km/h 4mph /  6.4km/h 95% 0.00in /  0mm 0 W/m2
04:30 50 °F /  10 °C 48.9 °F /  9.4 °C 30.12in /  1019.9hPa NE 2mph /  3.2km/h 3mph /  4.8km/h 96% 0.00in /  0mm 0 W/m2
04:40 49.8 °F /  9.9 °C 48.7 °F /  9.3 °C 30.12in /  1019.9hPa NE 3mph /  4.8km/h 4mph /  6.4km/h 96% 0.00in /  0mm 0 W/m2
04:50 50 °F /  10 °C 48.9 °F /  9.4 °C 30.12in /  1019.9hPa Calm   5mph /  8km/h 96% 0.00in /  0mm 0 W/m2
05:00 49.6 °F /  9.8 °C 48.5 °F /  9.2 °C 30.12in /  1019.9hPa Calm   2mph /  3.2km/h 96% 0.00in /  0mm 6 W/m2
05:10 49.6 °F /  9.8 °C 48.5 °F /  9.2 °C 30.12in /  1019.9hPa Calm   2mph /  3.2km/h 96% 0.00in /  0mm 12 W/m2
05:20 49.5 °F /  9.7 °C 48.4 °F /  9.1 °C 30.12in /  1019.9hPa ENE 2mph /  3.2km/h 3mph /  4.8km/h 96% 0.00in /  0mm 19 W/m2
05:30 49.6 °F /  9.8 °C 48.5 °F /  9.2 °C 30.12in /  1019.9hPa ENE 1mph /  1.6km/h 5mph /  8km/h 96% 0.00in /  0mm 27 W/m2
05:40 49.6 °F /  9.8 °C 49.1 °F /  9.5 °C 30.12in /  1019.9hPa Calm   4mph /  6.4km/h 98% 0.00in /  0mm 35 W/m2
05:50 49.6 °F /  9.8 °C 49.1 °F /  9.5 °C 30.12in /  1019.9hPa ESE 2mph /  3.2km/h 3mph /  4.8km/h 98% 0.00in /  0mm 68 W/m2
06:00 49.8 °F /  9.9 °C 49.3 °F /  9.6 °C 30.12in /  1019.9hPa NE 1mph /  1.6km/h 3mph /  4.8km/h 98% 0.00in /  0mm 93 W/m2
06:10 50.2 °F /  10.1 °C 49.6 °F /  9.8 °C 30.12in /  1019.9hPa ENE 1mph /  1.6km/h 4mph /  6.4km/h 98% 0.00in /  0mm 118 W/m2
06:20 50.4 °F /  10.2 °C 49.8 °F /  9.9 °C 30.12in /  1019.9hPa ESE 2mph /  3.2km/h 5mph /  8km/h 98% 0.00in /  0mm 145 W/m2
06:30 50.7 °F /  10.4 °C 50.2 °F /  10.1 °C 30.12in /  1019.9hPa SE 2mph /  3.2km/h 5mph /  8km/h 98% 0.00in /  0mm 171 W/m2
06:40 50.9 °F /  10.5 °C 49.8 °F /  9.9 °C 30.12in /  1019.9hPa East 2mph /  3.2km/h 6mph /  9.7km/h 96% 0.00in /  0mm 201 W/m2
06:50 51.6 °F /  10.9 °C 50.5 °F /  10.3 °C 30.12in /  1019.9hPa ESE 3mph /  4.8km/h 7mph /  11.3km/h 96% 0.00in /  0mm 235 W/m2
07:00 52.2 °F /  11.2 °C 51.1 °F /  10.6 °C 30.12in /  1019.9hPa ESE 3mph /  4.8km/h 8mph /  12.9km/h 96% 0.00in /  0mm 266 W/m2
07:10 52.7 °F /  11.5 °C 51.6 °F /  10.9 °C 30.12in /  1019.9hPa SE 1mph /  1.6km/h 5mph /  8km/h 96% 0.00in /  0mm 299 W/m2
07:20 53.2 °F /  11.8 °C 51.8 °F /  11 °C 30.12in /  1019.9hPa ENE 1mph /  1.6km/h 4mph /  6.4km/h 95% 0.00in /  0mm 336 W/m2
07:30 54 °F /  12.2 °C 52.3 °F /  11.3 °C 30.12in /  1019.9hPa SSE 2mph /  3.2km/h 6mph /  9.7km/h 94% 0.00in /  0mm 371 W/m2
07:40 54.7 °F /  12.6 °C 52.7 °F /  11.5 °C 30.12in /  1019.9hPa SSE 1mph /  1.6km/h 6mph /  9.7km/h 93% 0.00in /  0mm 405 W/m2
07:50 55.3 °F /  12.9 °C 52.7 °F /  11.5 °C 30.12in /  1019.9hPa SW 3mph /  4.8km/h 7mph /  11.3km/h 91% 0.00in /  0mm 436 W/m2
08:00 56.1 °F /  13.4 °C 52.9 °F /  11.6 °C 30.12in /  1019.9hPa SW 3mph /  4.8km/h 7mph /  11.3km/h 89% 0.00in /  0mm 471 W/m2
08:10 56.8 °F /  13.8 °C 53.3 °F /  11.8 °C 30.12in /  1019.9hPa SW 5mph /  8km/h 8mph /  12.9km/h 88% 0.00in /  0mm 507 W/m2
08:20 57.4 °F /  14.1 °C 53.3 °F /  11.8 °C 30.12in /  1019.9hPa SW 3mph /  4.8km/h 8mph /  12.9km/h 86% 0.00in /  0mm 544 W/m2
08:30 58.1 °F /  14.5 °C 53.3 °F /  11.8 °C 30.12in /  1019.9hPa SW 6mph /  9.7km/h 8mph /  12.9km/h 84% 0.00in /  0mm 578 W/m2
08:40 58.6 °F /  14.8 °C 53.5 °F /  11.9 °C 30.12in /  1019.9hPa SW 5mph /  8km/h 8mph /  12.9km/h 83% 0.00in /  0mm 607 W/m2
08:50 59.5 °F /  15.3 °C 53.7 °F /  12.1 °C 30.11in /  1019.5hPa SW 5mph /  8km/h 7mph /  11.3km/h 81% 0.00in /  0mm 640 W/m2
09:00 60.8 °F /  16 °C 54.6 °F /  12.6 °C 30.11in /  1019.5hPa SW 2mph /  3.2km/h 8mph /  12.9km/h 80% 0.00in /  0mm 667 W/m2
09:10 62.2 °F /  16.8 °C 55.3 °F /  12.9 °C 30.11in /  1019.5hPa SW 5mph /  8km/h 10mph /  16.1km/h 78% 0.00in /  0mm 694 W/m2
09:20 63.2 °F /  17.3 °C 55.8 °F /  13.2 °C 30.11in /  1019.5hPa SW 6mph /  9.7km/h 10mph /  16.1km/h 77% 0.00in /  0mm 719 W/m2
09:30 64 °F /  17.8 °C 55.6 °F /  13.1 °C 30.11in /  1019.5hPa SW 7mph /  11.3km/h 13mph /  20.9km/h 74% 0.00in /  0mm 743 W/m2
Knjazevac, Serbia
Compliments of Weather Underground - 2 mb